createdAt,value
2019-04-21T00:01:26.487Z,6.70
2019-04-21T00:04:09.779Z,6.70
2019-04-21T00:06:53.037Z,6.70
2019-04-21T00:09:27.430Z,6.70
2019-04-21T00:11:55.367Z,6.70
2019-04-21T00:14:23.693Z,6.70
2019-04-21T00:16:51.160Z,6.60
2019-04-21T00:19:39.572Z,6.60
2019-04-21T00:22:26.102Z,6.50
2019-04-21T00:24:59.548Z,6.40
2019-04-21T00:27:33.718Z,6.40
2019-04-21T00:30:19.887Z,6.30
2019-04-21T00:32:35.254Z,6.30
2019-04-21T00:35:05.646Z,6.30
2019-04-21T00:37:49.257Z,6.20
2019-04-21T00:40:21.995Z,6.20
2019-04-21T00:42:57.248Z,6.20
2019-04-21T00:45:20.710Z,6.20
2019-04-21T00:48:03.945Z,6.20
2019-04-21T00:50:40.506Z,6.10
2019-04-21T00:53:32.043Z,6.10
2019-04-21T00:56:03.316Z,6.10
2019-04-21T00:58:37.262Z,6.00
2019-04-21T01:01:03.853Z,6.00
2019-04-21T01:03:41.668Z,5.90
2019-04-21T01:06:14.353Z,5.80
2019-04-21T01:08:35.811Z,5.80
2019-04-21T01:11:16.525Z,5.80
2019-04-21T01:13:45.486Z,5.80
2019-04-21T01:16:21.203Z,5.90
2019-04-21T01:18:49.408Z,5.90
2019-04-21T01:21:00.569Z,5.70
2019-04-21T01:23:31.744Z,5.70
2019-04-21T01:26:17.762Z,5.70
2019-04-21T01:28:49.519Z,5.60
2019-04-21T01:31:25.418Z,5.60
2019-04-21T01:34:03.309Z,5.60
2019-04-21T01:36:31.226Z,5.60
2019-04-21T01:39:08.412Z,5.50
2019-04-21T01:41:39.135Z,5.50
2019-04-21T01:44:07.994Z,5.50
2019-04-21T01:46:40.890Z,5.50
2019-04-21T01:49:10.502Z,5.40
2019-04-21T01:52:02.774Z,5.40
2019-04-21T01:54:40.389Z,5.30
2019-04-21T01:57:17.362Z,5.30
2019-04-21T01:59:43.453Z,5.20
2019-04-21T02:02:23.041Z,5.20
2019-04-21T02:05:07.104Z,5.10
2019-04-21T02:07:27.471Z,5.20
2019-04-21T02:10:05.130Z,5.10
2019-04-21T02:12:33.441Z,5.20
2019-04-21T02:15:11.473Z,5.00
2019-04-21T02:17:35.602Z,5.00
2019-04-21T02:20:02.773Z,4.90
2019-04-21T02:22:57.861Z,4.90
2019-04-21T02:25:22.770Z,4.90
2019-04-21T02:27:49.861Z,4.90
2019-04-21T02:30:40.738Z,4.90
2019-04-21T02:33:32.326Z,4.90
2019-04-21T02:38:08.947Z,4.80
2019-04-21T02:43:22.862Z,4.70
2019-04-21T02:45:47.569Z,4.70
2019-04-21T02:48:27.913Z,4.70
2019-04-21T02:51:17.596Z,4.60
2019-04-21T02:53:48.267Z,4.60
2019-04-21T02:56:02.805Z,4.60
2019-04-21T03:01:43.769Z,4.60
2019-04-21T03:04:18.802Z,4.50
2019-04-21T03:07:13.510Z,4.50
2019-04-21T03:12:17.960Z,4.30
2019-04-21T03:17:35.889Z,4.30
2019-04-21T03:20:15.089Z,4.20
2019-04-21T03:22:24.562Z,4.10
2019-04-21T03:27:41.146Z,4.00
2019-04-21T03:30:26.312Z,4.00
2019-04-21T03:33:18.424Z,4.20
2019-04-21T03:35:43.851Z,4.10
2019-04-21T03:37:37.045Z,4.10
2019-04-21T03:45:25.204Z,3.90
2019-04-21T03:47:55.247Z,4.00
2019-04-21T03:50:29.656Z,4.00
2019-04-21T04:04:17.996Z,3.80
2019-04-21T04:06:25.719Z,3.80
2019-04-21T04:09:37.214Z,3.70
2019-04-21T04:17:04.773Z,3.70
2019-04-21T04:19:34.676Z,3.70
2019-04-21T04:32:07.842Z,3.60
2019-04-21T04:34:49.797Z,3.50
2019-04-21T04:37:25.539Z,3.60
2019-04-21T04:40:10.727Z,3.50
2019-04-21T04:42:46.270Z,3.50
2019-04-21T04:47:51.236Z,3.60
2019-04-21T04:50:22.667Z,3.50
2019-04-21T04:53:12.670Z,3.60
2019-04-21T04:55:25.858Z,3.60
2019-04-21T05:00:34.870Z,3.90
2019-04-21T05:03:03.372Z,4.00
2019-04-21T05:06:10.434Z,4.10
2019-04-21T05:08:44.030Z,4.30
2019-04-21T05:11:11.566Z,4.40
2019-04-21T05:13:34.789Z,4.40
2019-04-21T05:16:16.321Z,4.50
2019-04-21T05:18:50.446Z,4.70
2019-04-21T05:21:24.758Z,4.70
2019-04-21T05:23:38.817Z,4.70
2019-04-21T05:26:04.284Z,4.80
2019-04-21T05:28:37.612Z,4.80
2019-04-21T05:32:00.515Z,4.90
2019-04-21T05:34:26.884Z,4.90
2019-04-21T05:37:18.674Z,5.10
2019-04-21T05:39:53.497Z,5.10
2019-04-21T05:42:25.068Z,5.10
2019-04-21T05:45:14.724Z,5.30
2019-04-21T05:48:15.906Z,5.40
2019-04-21T05:50:35.035Z,5.40
2019-04-21T05:53:08.486Z,5.70
2019-04-21T05:55:43.512Z,5.80
2019-04-21T05:58:14.480Z,5.90
2019-04-21T06:03:36.744Z,6.50
2019-04-21T06:06:22.023Z,6.70
2019-04-21T06:08:36.012Z,7.00
2019-04-21T06:11:10.244Z,7.30
2019-04-21T06:16:14.009Z,7.50
2019-04-21T06:18:50.593Z,7.80
2019-04-21T06:21:15.903Z,8.80
2019-04-21T06:23:46.186Z,9.20
2019-04-21T06:29:13.458Z,10.10
2019-04-21T06:31:57.797Z,10.20
2019-04-21T06:33:57.603Z,10.70
2019-04-21T06:41:39.889Z,11.30
2019-04-21T06:44:16.739Z,10.80
2019-04-21T06:46:44.733Z,11.10
2019-04-21T06:49:17.391Z,11.60
2019-04-21T06:51:57.679Z,12.10
2019-04-21T06:54:30.632Z,12.70
2019-04-21T06:56:56.376Z,12.30
2019-04-21T06:59:29.332Z,12.10
2019-04-21T07:02:24.871Z,12.40
2019-04-21T07:04:40.822Z,12.90
2019-04-21T07:07:05.602Z,12.70
2019-04-21T07:09:37.658Z,13.40
2019-04-21T07:12:13.888Z,13.80
2019-04-21T07:14:41.862Z,14.40
2019-04-21T07:17:24.572Z,14.60
2019-04-21T07:19:55.430Z,14.80
2019-04-21T07:22:24.594Z,15.20
2019-04-21T07:24:56.010Z,15.60
2019-04-21T07:27:33.941Z,15.80
2019-04-21T07:32:36.346Z,16.70
2019-04-21T07:37:35.470Z,17.60
2019-04-21T07:40:05.481Z,17.60
2019-04-21T07:42:40.082Z,17.50
2019-04-21T07:45:09.010Z,17.10
2019-04-21T07:47:50.683Z,17.80
2019-04-21T07:50:33.181Z,17.90
2019-04-21T07:53:17.761Z,18.40
2019-04-21T07:58:10.786Z,18.70
2019-04-21T08:00:53.012Z,19.00
2019-04-21T08:03:25.045Z,19.40
2019-04-21T08:05:52.614Z,20.60
2019-04-21T08:08:20.782Z,19.20
2019-04-21T08:10:52.359Z,19.10
2019-04-21T08:13:34.525Z,19.60
2019-04-21T08:15:59.544Z,19.50
2019-04-21T08:18:33.218Z,19.90
2019-04-21T08:21:06.177Z,21.30
2019-04-21T08:23:40.175Z,21.20
2019-04-21T08:26:07.910Z,21.20
2019-04-21T08:28:46.920Z,19.90
2019-04-21T08:31:30.530Z,20.20
2019-04-21T08:33:55.740Z,21.20
2019-04-21T08:36:25.516Z,22.40
2019-04-21T08:38:53.681Z,22.60
2019-04-21T08:41:22.993Z,22.40
2019-04-21T08:43:59.004Z,22.00
2019-04-21T08:46:31.120Z,21.70
2019-04-21T08:49:08.130Z,21.90
2019-04-21T08:51:39.509Z,21.40
2019-04-21T08:54:17.102Z,22.50
2019-04-21T08:57:10.200Z,23.50
2019-04-21T09:00:08.438Z,22.70
2019-04-21T09:05:15.447Z,21.80
2019-04-21T09:07:49.571Z,22.30
2019-04-21T09:10:14.378Z,23.20
2019-04-21T09:12:46.755Z,22.40
2019-04-21T09:15:18.973Z,22.50
2019-04-21T09:17:44.703Z,23.70
2019-04-21T09:20:29.490Z,24.10
2019-04-21T09:23:00.971Z,23.10
2019-04-21T09:25:33.559Z,23.80
2019-04-21T09:28:00.550Z,23.40
2019-04-21T09:30:19.809Z,22.60
2019-04-21T09:32:54.470Z,23.00
2019-04-21T09:35:24.092Z,22.60
2019-04-21T09:38:02.117Z,22.90
2019-04-21T09:40:36.022Z,23.80
2019-04-21T09:43:04.779Z,24.90
2019-04-21T09:45:32.999Z,24.90
2019-04-21T09:48:09.934Z,24.00
2019-04-21T09:50:37.894Z,24.60
2019-04-21T09:53:16.810Z,24.10
2019-04-21T09:55:50.536Z,24.20
2019-04-21T09:58:24.202Z,22.90
2019-04-21T10:01:00.167Z,23.70
2019-04-21T10:03:21.226Z,24.30
2019-04-21T10:05:54.021Z,24.00
2019-04-21T10:08:25.092Z,24.70
2019-04-21T10:10:56.960Z,24.30
2019-04-21T10:13:28.137Z,24.00
2019-04-21T10:16:13.242Z,24.70
2019-04-21T10:18:44.189Z,24.30
2019-04-21T10:21:15.527Z,24.90
2019-04-21T10:23:46.435Z,24.70
2019-04-21T10:26:18.796Z,24.50
2019-04-21T10:28:50.984Z,25.10
2019-04-21T10:31:22.798Z,25.40
2019-04-21T10:33:54.546Z,24.30
2019-04-21T10:36:26.782Z,24.00
2019-04-21T10:39:00.387Z,24.20
2019-04-21T10:41:30.378Z,24.70
2019-04-21T10:44:01.264Z,23.90
2019-04-21T10:46:32.985Z,24.20
2019-04-21T10:49:04.495Z,25.10
2019-04-21T10:51:35.326Z,24.20
2019-04-21T10:54:06.380Z,24.90
2019-04-21T10:56:43.274Z,24.50
2019-04-21T10:59:10.258Z,24.90
2019-04-21T11:01:41.358Z,25.40
2019-04-21T11:04:27.218Z,25.60
2019-04-21T11:06:58.279Z,25.10
2019-04-21T11:09:26.626Z,24.80
2019-04-21T11:11:57.884Z,25.20
2019-04-21T11:14:29.346Z,25.30
2019-04-21T11:17:00.581Z,24.90
2019-04-21T11:19:32.713Z,24.00
2019-04-21T11:22:05.023Z,24.10
2019-04-21T11:24:36.741Z,25.10
2019-04-21T11:27:08.835Z,24.30
2019-04-21T11:29:41.240Z,24.50
2019-04-21T11:32:12.809Z,24.70
2019-04-21T11:34:43.685Z,24.70
2019-04-21T11:37:16.456Z,23.80
2019-04-21T11:39:55.310Z,24.40
2019-04-21T11:42:30.064Z,25.00
2019-04-21T11:45:01.108Z,25.10
2019-04-21T11:47:36.456Z,24.90
2019-04-21T11:50:16.993Z,24.70
2019-04-21T11:52:49.320Z,24.50
2019-04-21T11:55:20.647Z,24.80
2019-04-21T11:57:53.081Z,24.70
2019-04-21T12:00:25.358Z,24.60
2019-04-21T12:02:57.487Z,24.30
2019-04-21T12:05:29.678Z,24.10
2019-04-21T12:08:01.914Z,23.90
2019-04-21T12:10:33.382Z,24.40
2019-04-21T12:13:07.262Z,24.10
2019-04-21T12:15:36.967Z,24.10
2019-04-21T12:18:08.093Z,24.20
2019-04-21T12:20:39.738Z,24.70
2019-04-21T12:23:10.695Z,24.70
2019-04-21T12:25:47.264Z,24.70
2019-04-21T12:28:19.724Z,24.50
2019-04-21T12:30:53.758Z,25.00
2019-04-21T12:33:43.742Z,24.70
2019-04-21T12:36:15.851Z,24.70
2019-04-21T12:38:52.358Z,24.50
2019-04-21T12:41:20.370Z,23.90
2019-04-21T12:43:54.863Z,24.10
2019-04-21T12:46:25.965Z,23.90
2019-04-21T12:48:57.990Z,24.30
2019-04-21T12:51:30.185Z,24.50
2019-04-21T12:54:01.707Z,24.70
2019-04-21T12:56:33.679Z,24.50
2019-04-21T12:59:05.018Z,24.30
2019-04-21T13:01:37.479Z,24.60
2019-04-21T13:04:08.405Z,24.20
2019-04-21T13:06:39.490Z,24.50
2019-04-21T13:09:13.064Z,24.60
2019-04-21T13:11:43.470Z,24.40
2019-04-21T13:14:15.732Z,24.60
2019-04-21T13:16:47.769Z,24.30
2019-04-21T13:19:19.031Z,24.10
2019-04-21T13:21:49.979Z,24.20
2019-04-21T13:24:21.925Z,24.10
2019-04-21T13:26:57.857Z,24.10
2019-04-21T13:29:26.041Z,24.30
2019-04-21T13:31:58.304Z,24.30
2019-04-21T13:34:29.110Z,24.50
2019-04-21T13:37:01.390Z,24.30
2019-04-21T13:40:18.202Z,24.60
2019-04-21T13:42:32.427Z,24.70
2019-04-21T13:45:00.590Z,24.50
2019-04-21T13:47:30.510Z,24.40
2019-04-21T13:50:03.689Z,24.10
2019-04-21T13:52:34.274Z,23.90
2019-04-21T13:55:07.610Z,23.90
2019-04-21T13:57:40.815Z,23.90
2019-04-21T14:00:13.273Z,24.10
2019-04-21T14:02:44.749Z,23.70
2019-04-21T14:05:16.216Z,23.50
2019-04-21T14:07:48.174Z,23.40
2019-04-21T14:10:19.872Z,23.50
2019-04-21T14:12:50.900Z,23.30
2019-04-21T14:15:24.213Z,23.20
2019-04-21T14:17:56.909Z,23.40
2019-04-21T14:20:29.039Z,23.30
2019-04-21T14:23:14.481Z,23.20
2019-04-21T14:25:32.900Z,23.10
2019-04-21T14:28:04.181Z,22.90
2019-04-21T14:30:34.872Z,22.70
2019-04-21T14:33:05.939Z,22.70
2019-04-21T14:35:36.906Z,22.70
2019-04-21T14:38:09.041Z,22.80
2019-04-21T14:40:40.038Z,22.70
2019-04-21T14:43:12.002Z,22.60
2019-04-21T14:45:57.130Z,22.50
2019-04-21T14:49:03.600Z,22.50
2019-04-21T14:51:52.810Z,22.30
2019-04-21T14:54:42.633Z,22.20
2019-04-21T14:57:13.738Z,22.20
2019-04-21T14:59:44.895Z,22.20
2019-04-21T15:02:16.130Z,22.00
2019-04-21T15:04:47.041Z,22.20
2019-04-21T15:07:19.275Z,22.30
2019-04-21T15:10:01.646Z,22.10
2019-04-21T15:12:23.598Z,22.10
2019-04-21T15:14:55.998Z,22.10
2019-04-21T15:17:29.136Z,22.00
2019-04-21T15:20:06.568Z,21.90
2019-04-21T15:22:32.370Z,21.60
2019-04-21T15:25:04.079Z,21.80
2019-04-21T15:27:35.301Z,21.80
2019-04-21T15:30:08.997Z,21.70
2019-04-21T15:32:40.296Z,21.60
2019-04-21T15:35:11.383Z,21.60
2019-04-21T15:37:42.132Z,21.50
2019-04-21T15:40:21.246Z,21.50
2019-04-21T15:42:46.489Z,21.60
2019-04-21T15:45:19.284Z,21.50
2019-04-21T15:47:50.091Z,21.30
2019-04-21T15:50:21.907Z,21.10
2019-04-21T15:52:55.905Z,21.00
2019-04-21T15:55:58.995Z,21.20
2019-04-21T15:58:52.681Z,21.30
2019-04-21T16:01:36.469Z,21.30
2019-04-21T16:04:08.012Z,21.00
2019-04-21T16:06:39.398Z,21.00
2019-04-21T16:09:16.129Z,21.00
2019-04-21T16:11:46.126Z,21.00
2019-04-21T16:14:18.566Z,20.90
2019-04-21T16:16:49.516Z,21.00
2019-04-21T16:19:20.434Z,21.30
2019-04-21T16:21:52.705Z,21.30
2019-04-21T16:24:23.497Z,21.10
2019-04-21T16:26:54.446Z,20.90
2019-04-21T16:29:25.247Z,20.70
2019-04-21T16:31:57.351Z,20.80
2019-04-21T16:34:38.923Z,20.90
2019-04-21T16:37:01.497Z,20.90
2019-04-21T16:39:33.544Z,20.70
2019-04-21T16:42:07.061Z,20.80
2019-04-21T16:44:37.198Z,20.50
2019-04-21T16:47:09.620Z,20.50
2019-04-21T16:49:40.429Z,20.80
2019-04-21T16:52:23.923Z,20.70
2019-04-21T16:55:05.079Z,20.50
2019-04-21T16:57:53.099Z,20.40
2019-04-21T17:00:31.230Z,20.40
2019-04-21T17:02:56.934Z,20.30
2019-04-21T17:05:28.018Z,20.10
2019-04-21T17:07:59.709Z,20.20
2019-04-21T17:10:30.973Z,20.20
2019-04-21T17:13:02.347Z,20.10
2019-04-21T17:16:29.943Z,20.20
2019-04-21T17:18:22.682Z,20.30
2019-04-21T17:20:46.825Z,20.40
2019-04-21T17:23:11.761Z,20.30
2019-04-21T17:25:43.361Z,20.00
2019-04-21T17:28:15.396Z,19.80
2019-04-21T17:30:46.967Z,19.90
2019-04-21T17:33:23.281Z,20.00
2019-04-21T17:35:53.124Z,19.90
2019-04-21T17:38:24.005Z,19.50
2019-04-21T17:40:56.015Z,19.50
2019-04-21T17:43:27.627Z,19.30
2019-04-21T17:45:59.375Z,19.20
2019-04-21T17:48:31.293Z,19.20
2019-04-21T17:51:28.140Z,19.00
2019-04-21T17:54:17.580Z,18.90
2019-04-21T17:57:07.503Z,18.80
2019-04-21T17:59:45.094Z,18.60
2019-04-21T18:02:03.705Z,18.70
2019-04-21T18:04:43.178Z,18.80
2019-04-21T18:07:27.322Z,18.60
2019-04-21T18:10:04.444Z,18.80
2019-04-21T18:12:33.783Z,18.50
2019-04-21T18:15:00.225Z,18.20
2019-04-21T18:17:24.656Z,18.10
2019-04-21T18:19:57.223Z,17.80
2019-04-21T18:22:47.896Z,17.80
2019-04-21T18:25:31.955Z,17.70
2019-04-21T18:27:54.539Z,17.70
2019-04-21T18:30:52.092Z,17.60
2019-04-21T18:33:29.896Z,17.50
2019-04-21T18:36:21.287Z,17.50
2019-04-21T18:39:10.033Z,17.50
2019-04-21T18:41:32.694Z,17.30
2019-04-21T18:44:36.415Z,17.30
2019-04-21T18:47:22.445Z,17.20
2019-04-21T18:49:44.409Z,17.20
2019-04-21T18:52:32.142Z,17.10
2019-04-21T18:55:08.467Z,17.00
2019-04-21T18:57:35.539Z,17.00
2019-04-21T18:59:59.370Z,17.20
2019-04-21T19:02:36.896Z,16.80
2019-04-21T19:05:09.877Z,16.50
2019-04-21T19:07:58.357Z,16.40
2019-04-21T19:10:42.308Z,16.50
2019-04-21T19:15:28.177Z,16.50
2019-04-21T19:20:34.836Z,16.10
2019-04-21T19:23:10.120Z,15.60
2019-04-21T19:25:49.964Z,15.30
2019-04-21T19:28:13.028Z,15.00
2019-04-21T19:30:56.429Z,14.80
2019-04-21T19:33:22.418Z,14.70
2019-04-21T19:35:37.587Z,14.50
2019-04-21T19:38:12.296Z,14.30
2019-04-21T19:40:56.520Z,14.10
2019-04-21T19:43:35.668Z,13.80
2019-04-21T19:46:04.580Z,13.70
2019-04-21T19:48:44.669Z,13.60
2019-04-21T19:51:13.083Z,13.40
2019-04-21T19:53:41.572Z,13.30
2019-04-21T19:55:58.269Z,13.10
2019-04-21T19:58:33.878Z,12.90
2019-04-21T20:01:01.765Z,12.70
2019-04-21T20:03:32.541Z,12.70
2019-04-21T20:06:11.690Z,12.70
2019-04-21T20:08:46.984Z,12.70
2019-04-21T20:11:24.114Z,12.50
2019-04-21T20:14:28.901Z,12.40
2019-04-21T20:16:37.825Z,12.40
2019-04-21T20:18:54.872Z,12.30
2019-04-21T20:21:20.764Z,12.30
2019-04-21T20:23:51.784Z,12.10
2019-04-21T20:26:30.452Z,11.90
2019-04-21T20:29:04.521Z,11.80
2019-04-21T20:31:46.975Z,11.80
2019-04-21T20:34:22.358Z,11.80
2019-04-21T20:37:00.371Z,11.70
2019-04-21T20:39:15.187Z,11.70
2019-04-21T20:41:54.994Z,11.50
2019-04-21T20:44:29.607Z,11.40
2019-04-21T20:46:59.870Z,11.40
2019-04-21T20:49:31.673Z,11.30
2019-04-21T20:52:09.800Z,11.30
2019-04-21T20:54:44.033Z,11.10
2019-04-21T20:57:11.390Z,10.90
2019-04-21T20:59:43.952Z,11.00
2019-04-21T21:02:17.612Z,10.90
2019-04-21T21:04:45.362Z,10.80
2019-04-21T21:07:36.401Z,10.70
2019-04-21T21:10:00.481Z,10.60
2019-04-21T21:12:39.175Z,10.50
2019-04-21T21:14:57.598Z,10.50
2019-04-21T21:17:53.660Z,10.40
2019-04-21T21:20:16.272Z,10.20
2019-04-21T21:22:36.780Z,10.10
2019-04-21T21:25:19.344Z,10.00
2019-04-21T21:27:42.125Z,10.00
2019-04-21T21:30:14.521Z,9.80
2019-04-21T21:32:52.074Z,9.80
2019-04-21T21:35:18.502Z,10.00
2019-04-21T21:37:55.374Z,9.70
2019-04-21T21:40:26.722Z,9.70
2019-04-21T21:42:45.284Z,9.60
2019-04-21T21:45:18.368Z,9.60
2019-04-21T21:48:04.460Z,9.50
2019-04-21T21:50:29.777Z,9.30
2019-04-21T21:53:02.227Z,9.30
2019-04-21T21:55:25.715Z,9.30
2019-04-21T21:58:01.269Z,9.20
2019-04-21T22:00:30.372Z,9.20
2019-04-21T22:03:10.461Z,9.10
2019-04-21T22:05:45.560Z,9.10
2019-04-21T22:08:06.795Z,9.00
2019-04-21T22:10:39.088Z,8.90
2019-04-21T22:13:14.672Z,8.90
2019-04-21T22:15:43.591Z,8.90
2019-04-21T22:18:33.276Z,8.80
2019-04-21T22:21:02.275Z,8.60
2019-04-21T22:23:32.372Z,8.60
2019-04-21T22:25:53.472Z,8.50
2019-04-21T22:28:25.495Z,8.50
2019-04-21T22:30:57.025Z,8.50
2019-04-21T22:33:31.329Z,8.50
2019-04-21T22:36:10.038Z,8.40
2019-04-21T22:38:50.896Z,8.30
2019-04-21T22:41:12.982Z,8.30
2019-04-21T22:43:43.358Z,8.10
2019-04-21T22:46:12.380Z,8.10
2019-04-21T22:48:45.310Z,8.10
2019-04-21T22:51:23.755Z,8.00
2019-04-21T22:53:51.892Z,8.00
2019-04-21T22:56:24.404Z,7.90
2019-04-21T22:58:53.111Z,8.00
2019-04-21T23:01:33.389Z,8.00
2019-04-21T23:04:00.869Z,7.90
2019-04-21T23:06:32.281Z,7.80
2019-04-21T23:09:01.460Z,7.70
2019-04-21T23:11:38.666Z,7.70
2019-04-21T23:14:08.176Z,7.50
2019-04-21T23:16:40.240Z,7.60
2019-04-21T23:19:24.357Z,7.70
2019-04-21T23:22:03.568Z,7.60
2019-04-21T23:24:42.089Z,7.50
2019-04-21T23:27:05.883Z,7.30
2019-04-21T23:29:49.271Z,7.30
2019-04-21T23:32:08.356Z,7.30
2019-04-21T23:34:30.652Z,7.20
2019-04-21T23:37:06.651Z,7.20
2019-04-21T23:39:32.841Z,7.20
2019-04-21T23:42:03.157Z,7.10
2019-04-21T23:44:41.864Z,7.00
2019-04-21T23:47:11.819Z,6.90
2019-04-21T23:49:51.146Z,6.90
2019-04-21T23:52:15.651Z,6.90
2019-04-21T23:54:45.302Z,6.80
2019-04-21T23:57:27.842Z,6.80
2019-04-21T23:59:53.360Z,6.70
